METAR Data
IDs: Format: Raw Decoded Include TAF

Data at: 1151 UTC 22 Jan 2022

METAR for:KDUH (Toledo/Suburban Arpt, MI, US)
Text:KDUH 221135Z AUTO 21005KT 10SM CLR M10/M15 A3034 RMK AO2 T11051146
Temperature:-10.5°C ( 13°F)
Dewpoint:-14.6°C ( 6°F) [RH = 72%]
Pressure (altimeter):30.34 inches Hg (1027.5 mb)
Winds:from the SSW (210 degrees) at 6 MPH (5 knots; 2.6 m/s)
Visibility:10 or more sm (16+ km)
Ceiling:at least 12,000 feet AGL
Clouds:sky clear below 12,000 feet AGL
QC Flag:automated observation with no human augmentation